CAMANCHE RESERVOIR (CMN)

Elevation: 236' · MOKELUMNE R basin · Operator: East Bay Municipal Utility District

Provisional data, subject to change.
Query executed Thursday at 5:01:29   clock

Select a sensor type for a plot of data.
Note: Reservoir Flows are daily averages.

Earlier

Date RES ELE    STORAGE    RES CHG    TOC STO    ABV TOC    OUTFLOW    INFLOW   
 FEET   AF   AF   AF   AF   CFS   CFS  
10/01/2014 187.22 135120 1066 388630 -- 230 804
10/02/2014 187.48 136180 1059 386980 -250800 232 809
10/03/2014 187.48 136180 -400 383780 -- 231 11
10/04/2014 187.25 135240 0 380640 -- 231 11
10/05/2014 187.15 134840 0 377410 -242570 231 11
10/06/2014 187.23 135160 321 375430 -240270 337 730
10/07/2014 187.29 135410 290 373260 -237850 376 535
10/08/2014 187.39 135810 444 371220 -235410 286 543
10/09/2014 187.29 135410 -399 368140 -232730 209 11
10/10/2014 187.18 134960 -493 364970 -- 231 11
10/11/2014 187.07 134510 -444 361960 -- 231 11
10/12/2014 186.94 133990 -465 358850 -224860 230 11
10/13/2014 186.99 134190 175 356950 -222760 405 539
10/14/2014 187.02 134310 73 354961 -220650 485 537
10/15/2014 187.08 134550 238 352881 -218331 r 387 540
10/16/2014 187.18 134960 437 350762 -215802 320 547
10/17/2014 187.18 134960 -542 347562 -- 266 11
10/18/2014 187.06 134470 -463 344422 -- 237 11
10/19/2014 186.81 133460 -460 341293 -207833 230 11
10/20/2014 186.65 132820 -645 338363 -205543 362 11
10/21/2014 186.45 132020 -792 335504 -203484 581 11
10/22/2014 186.52 132300 301 333454 -201154 347 530
10/23/2014 186.63 132740 427 331235 -198495 303 535
10/24/2014 186.76 133260 530 329005 -- 252 537
10/25/2014 186.66 132860 -377 325865 -- 231 11
10/26/2014 186.55 132420 -464 322796 -190376 230 11
10/27/2014 186.68 132940 547 320776 -187836 230 531
10/28/2014 186.78 133340 398 318797 -185457 335 539
10/29/2014 186.87 133700 360 -- -- 348 547
10/30/2014 -- -- -- -- -- -- --

Later | Latest

Warning! This data is preliminary and subject to revision.

Show CMN Map | Plot CMN Data | 1 Month CMN Data | Real-Time CMN Data | CMN Info